sensor_id;sensor_type;location;lat;lon;timestamp;P1;durP1;ratioP1;P2;durP2;ratioP2
25049;SDS011;13046;49.814;9.918;2023-11-19T00:00:30;14.90;;;10.27;;
25049;SDS011;13046;49.814;9.918;2023-11-19T00:02:55;12.43;;;10.55;;
25049;SDS011;13046;49.814;9.918;2023-11-19T00:05:21;14.88;;;11.02;;
25049;SDS011;13046;49.814;9.918;2023-11-19T00:07:46;13.23;;;10.35;;
25049;SDS011;13046;49.814;9.918;2023-11-19T00:10:13;13.02;;;10.93;;
25049;SDS011;13046;49.814;9.918;2023-11-19T00:12:50;15.18;;;10.40;;
25049;SDS011;13046;49.814;9.918;2023-11-19T00:15:16;12.07;;;10.45;;
25049;SDS011;13046;49.814;9.918;2023-11-19T00:17:44;13.50;;;10.00;;
25049;SDS011;13046;49.814;9.918;2023-11-19T00:20:11;13.18;;;9.57;;
25049;SDS011;13046;49.814;9.918;2023-11-19T00:22:38;10.57;;;9.10;;
25049;SDS011;13046;49.814;9.918;2023-11-19T00:25:04;11.75;;;9.50;;
25049;SDS011;13046;49.814;9.918;2023-11-19T00:27:31;11.55;;;9.68;;
25049;SDS011;13046;49.814;9.918;2023-11-19T00:29:56;13.95;;;10.45;;
25049;SDS011;13046;49.814;9.918;2023-11-19T00:32:22;11.10;;;9.93;;
25049;SDS011;13046;49.814;9.918;2023-11-19T00:34:48;16.33;;;9.80;;
25049;SDS011;13046;49.814;9.918;2023-11-19T00:37:14;12.73;;;9.68;;
25049;SDS011;13046;49.814;9.918;2023-11-19T00:39:40;12.38;;;11.07;;
25049;SDS011;13046;49.814;9.918;2023-11-19T00:42:06;12.25;;;10.05;;
25049;SDS011;13046;49.814;9.918;2023-11-19T00:44:32;13.40;;;10.98;;
25049;SDS011;13046;49.814;9.918;2023-11-19T00:46:58;12.75;;;10.20;;
25049;SDS011;13046;49.814;9.918;2023-11-19T00:49:25;12.10;;;10.10;;
25049;SDS011;13046;49.814;9.918;2023-11-19T00:51:51;11.98;;;10.48;;
25049;SDS011;13046;49.814;9.918;2023-11-19T00:54:16;17.52;;;10.18;;
25049;SDS011;13046;49.814;9.918;2023-11-19T00:56:42;10.93;;;9.80;;
25049;SDS011;13046;49.814;9.918;2023-11-19T00:59:08;11.02;;;9.90;;
25049;SDS011;13046;49.814;9.918;2023-11-19T01:01:34;12.80;;;9.23;;
25049;SDS011;13046;49.814;9.918;2023-11-19T01:03:59;12.65;;;10.70;;
25049;SDS011;13046;49.814;9.918;2023-11-19T01:06:28;12.75;;;10.45;;
25049;SDS011;13046;49.814;9.918;2023-11-19T01:08:55;12.57;;;9.77;;
25049;SDS011;13046;49.814;9.918;2023-11-19T01:11:25;15.07;;;11.07;;
25049;SDS011;13046;49.814;9.918;2023-11-19T01:13:51;13.40;;;10.88;;
25049;SDS011;13046;49.814;9.918;2023-11-19T01:16:17;13.23;;;10.40;;
25049;SDS011;13046;49.814;9.918;2023-11-19T01:18:47;12.18;;;10.85;;
25049;SDS011;13046;49.814;9.918;2023-11-19T01:21:13;15.60;;;11.48;;
25049;SDS011;13046;49.814;9.918;2023-11-19T01:23:42;13.63;;;12.23;;
25049;SDS011;13046;49.814;9.918;2023-11-19T01:26:09;15.98;;;11.15;;
25049;SDS011;13046;49.814;9.918;2023-11-19T01:28:38;13.65;;;11.80;;
25049;SDS011;13046;49.814;9.918;2023-11-19T01:31:10;14.00;;;11.68;;
25049;SDS011;13046;49.814;9.918;2023-11-19T01:33:38;11.85;;;10.60;;
25049;SDS011;13046;49.814;9.918;2023-11-19T01:36:04;13.82;;;10.27;;
25049;SDS011;13046;49.814;9.918;2023-11-19T01:38:31;11.27;;;10.10;;
25049;SDS011;13046;49.814;9.918;2023-11-19T01:40:57;13.50;;;10.70;;
25049;SDS011;13046;49.814;9.918;2023-11-19T01:43:35;12.43;;;10.70;;
25049;SDS011;13046;49.814;9.918;2023-11-19T01:46:04;13.32;;;9.90;;
25049;SDS011;13046;49.814;9.918;2023-11-19T01:48:31;12.60;;;10.60;;
25049;SDS011;13046;49.814;9.918;2023-11-19T01:50:59;12.80;;;10.43;;
25049;SDS011;13046;49.814;9.918;2023-11-19T01:53:26;11.00;;;9.82;;
25049;SDS011;13046;49.814;9.918;2023-11-19T01:55:52;15.13;;;10.85;;
25049;SDS011;13046;49.814;9.918;2023-11-19T01:58:18;13.77;;;11.88;;
25049;SDS011;13046;49.814;9.918;2023-11-19T02:00:44;13.73;;;10.35;;
25049;SDS011;13046;49.814;9.918;2023-11-19T02:03:11;10.93;;;9.75;;
25049;SDS011;13046;49.814;9.918;2023-11-19T02:05:38;15.93;;;10.98;;
25049;SDS011;13046;49.814;9.918;2023-11-19T02:08:05;13.23;;;10.30;;
25049;SDS011;13046;49.814;9.918;2023-11-19T02:10:32;14.75;;;10.55;;
25049;SDS011;13046;49.814;9.918;2023-11-19T02:12:58;13.13;;;9.65;;
25049;SDS011;13046;49.814;9.918;2023-11-19T02:15:24;12.07;;;10.55;;
25049;SDS011;13046;49.814;9.918;2023-11-19T02:17:50;16.05;;;10.18;;
25049;SDS011;13046;49.814;9.918;2023-11-19T02:20:17;16.70;;;11.10;;
25049;SDS011;13046;49.814;9.918;2023-11-19T02:22:45;11.75;;;10.00;;
25049;SDS011;13046;49.814;9.918;2023-11-19T02:25:15;15.38;;;10.82;;
25049;SDS011;13046;49.814;9.918;2023-11-19T02:27:52;14.73;;;10.25;;
25049;SDS011;13046;49.814;9.918;2023-11-19T02:30:22;13.10;;;9.88;;
25049;SDS011;13046;49.814;9.918;2023-11-19T02:33:00;12.88;;;9.82;;
25049;SDS011;13046;49.814;9.918;2023-11-19T02:35:31;12.00;;;9.63;;
25049;SDS011;13046;49.814;9.918;2023-11-19T02:37:57;6.85;;;6.15;;
25049;SDS011;13046;49.814;9.918;2023-11-19T02:40:29;7.03;;;6.22;;
25049;SDS011;13046;49.814;9.918;2023-11-19T02:42:54;6.03;;;5.43;;
25049;SDS011;13046;49.814;9.918;2023-11-19T02:45:24;5.97;;;5.38;;
25049;SDS011;13046;49.814;9.918;2023-11-19T02:47:51;5.38;;;4.80;;
25049;SDS011;13046;49.814;9.918;2023-11-19T02:50:18;7.63;;;5.28;;
25049;SDS011;13046;49.814;9.918;2023-11-19T02:52:50;3.95;;;3.63;;
25049;SDS011;13046;49.814;9.918;2023-11-19T02:55:17;4.38;;;4.00;;
25049;SDS011;13046;49.814;9.918;2023-11-19T02:57:43;3.58;;;3.28;;
25049;SDS011;13046;49.814;9.918;2023-11-19T03:00:22;3.80;;;3.50;;
25049;SDS011;13046;49.814;9.918;2023-11-19T03:02:49;3.85;;;3.30;;
25049;SDS011;13046;49.814;9.918;2023-11-19T03:05:39;3.63;;;3.28;;
25049;SDS011;13046;49.814;9.918;2023-11-19T03:08:06;4.57;;;2.95;;
25049;SDS011;13046;49.814;9.918;2023-11-19T03:10:32;4.65;;;3.35;;
25049;SDS011;13046;49.814;9.918;2023-11-19T03:12:59;2.97;;;2.78;;
25049;SDS011;13046;49.814;9.918;2023-11-19T03:15:27;3.42;;;3.13;;
25049;SDS011;13046;49.814;9.918;2023-11-19T03:17:53;3.40;;;3.10;;
25049;SDS011;13046;49.814;9.918;2023-11-19T03:20:19;3.78;;;2.03;;
25049;SDS011;13046;49.814;9.918;2023-11-19T03:22:46;3.28;;;2.70;;
25049;SDS011;13046;49.814;9.918;2023-11-19T03:25:11;4.25;;;3.03;;
25049;SDS011;13046;49.814;9.918;2023-11-19T03:27:38;2.72;;;2.33;;
25049;SDS011;13046;49.814;9.918;2023-11-19T03:30:07;4.00;;;3.10;;
25049;SDS011;13046;49.814;9.918;2023-11-19T03:32:37;3.10;;;2.80;;
25049;SDS011;13046;49.814;9.918;2023-11-19T03:35:04;4.60;;;3.10;;
25049;SDS011;13046;49.814;9.918;2023-11-19T03:37:32;8.05;;;2.80;;
25049;SDS011;13046;49.814;9.918;2023-11-19T03:39:58;3.25;;;2.95;;
25049;SDS011;13046;49.814;9.918;2023-11-19T03:42:28;3.17;;;2.88;;
25049;SDS011;13046;49.814;9.918;2023-11-19T03:44:55;5.65;;;3.10;;
25049;SDS011;13046;49.814;9.918;2023-11-19T03:47:21;3.33;;;3.03;;
25049;SDS011;13046;49.814;9.918;2023-11-19T03:49:48;3.83;;;3.50;;
25049;SDS011;13046;49.814;9.918;2023-11-19T03:52:14;2.65;;;2.45;;
25049;SDS011;13046;49.814;9.918;2023-11-19T03:54:40;11.23;;;10.52;;
25049;SDS011;13046;49.814;9.918;2023-11-19T03:57:06;6.28;;;5.65;;
25049;SDS011;13046;49.814;9.918;2023-11-19T03:59:31;4.00;;;3.70;;
25049;SDS011;13046;49.814;9.918;2023-11-19T04:01:58;9.38;;;8.48;;
25049;SDS011;13046;49.814;9.918;2023-11-19T04:04:26;6.80;;;6.10;;
25049;SDS011;13046;49.814;9.918;2023-11-19T04:06:52;7.60;;;6.90;;
25049;SDS011;13046;49.814;9.918;2023-11-19T04:09:18;7.07;;;6.47;;
25049;SDS011;13046;49.814;9.918;2023-11-19T04:11:44;8.60;;;7.80;;
25049;SDS011;13046;49.814;9.918;2023-11-19T04:14:12;7.88;;;7.25;;
25049;SDS011;13046;49.814;9.918;2023-11-19T04:16:38;7.68;;;6.57;;
25049;SDS011;13046;49.814;9.918;2023-11-19T04:19:04;11.38;;;6.38;;
25049;SDS011;13046;49.814;9.918;2023-11-19T04:21:31;8.15;;;6.20;;
25049;SDS011;13046;49.814;9.918;2023-11-19T04:23:57;6.75;;;5.85;;
25049;SDS011;13046;49.814;9.918;2023-11-19T04:26:23;7.90;;;6.68;;
25049;SDS011;13046;49.814;9.918;2023-11-19T04:28:49;7.22;;;6.45;;
25049;SDS011;13046;49.814;9.918;2023-11-19T04:31:17;7.13;;;6.43;;
25049;SDS011;13046;49.814;9.918;2023-11-19T04:33:43;5.50;;;3.83;;
25049;SDS011;13046;49.814;9.918;2023-11-19T04:36:09;4.88;;;4.22;;
25049;SDS011;13046;49.814;9.918;2023-11-19T04:38:36;3.10;;;2.80;;
25049;SDS011;13046;49.814;9.918;2023-11-19T04:41:04;3.03;;;2.83;;
25049;SDS011;13046;49.814;9.918;2023-11-19T04:43:31;2.60;;;2.40;;
25049;SDS011;13046;49.814;9.918;2023-11-19T04:45:59;3.60;;;2.10;;
25049;SDS011;13046;49.814;9.918;2023-11-19T04:48:25;2.42;;;2.22;;
25049;SDS011;13046;49.814;9.918;2023-11-19T04:50:51;2.22;;;2.03;;
25049;SDS011;13046;49.814;9.918;2023-11-19T04:53:17;3.88;;;2.40;;
25049;SDS011;13046;49.814;9.918;2023-11-19T04:55:43;2.05;;;1.85;;
25049;SDS011;13046;49.814;9.918;2023-11-19T04:58:09;1.90;;;1.80;;
25049;SDS011;13046;49.814;9.918;2023-11-19T05:00:35;4.80;;;2.13;;
25049;SDS011;13046;49.814;9.918;2023-11-19T05:03:01;3.05;;;2.50;;
25049;SDS011;13046;49.814;9.918;2023-11-19T05:05:27;6.35;;;5.75;;
25049;SDS011;13046;49.814;9.918;2023-11-19T05:07:53;3.05;;;2.85;;
25049;SDS011;13046;49.814;9.918;2023-11-19T05:10:19;4.20;;;3.80;;
25049;SDS011;13046;49.814;9.918;2023-11-19T05:12:45;2.92;;;2.72;;
25049;SDS011;13046;49.814;9.918;2023-11-19T05:15:11;3.03;;;2.78;;
25049;SDS011;13046;49.814;9.918;2023-11-19T05:17:37;2.90;;;2.70;;
25049;SDS011;13046;49.814;9.918;2023-11-19T05:20:04;2.83;;;2.63;;
25049;SDS011;13046;49.814;9.918;2023-11-19T05:22:38;4.35;;;3.92;;
25049;SDS011;13046;49.814;9.918;2023-11-19T05:25:07;3.92;;;3.03;;
25049;SDS011;13046;49.814;9.918;2023-11-19T05:27:37;6.13;;;5.45;;
25049;SDS011;13046;49.814;9.918;2023-11-19T05:30:04;16.73;;;10.77;;
25049;SDS011;13046;49.814;9.918;2023-11-19T05:32:34;4.75;;;4.35;;
25049;SDS011;13046;49.814;9.918;2023-11-19T05:34:59;13.10;;;8.25;;
25049;SDS011;13046;49.814;9.918;2023-11-19T05:37:25;12.38;;;10.32;;
25049;SDS011;13046;49.814;9.918;2023-11-19T05:39:50;4.80;;;3.95;;
25049;SDS011;13046;49.814;9.918;2023-11-19T05:42:17;2.78;;;2.50;;
25049;SDS011;13046;49.814;9.918;2023-11-19T05:44:43;3.00;;;2.70;;
25049;SDS011;13046;49.814;9.918;2023-11-19T05:47:08;5.05;;;2.90;;
25049;SDS011;13046;49.814;9.918;2023-11-19T05:49:34;3.08;;;2.83;;
25049;SDS011;13046;49.814;9.918;2023-11-19T05:52:00;7.10;;;6.38;;
25049;SDS011;13046;49.814;9.918;2023-11-19T05:54:28;6.53;;;5.30;;
25049;SDS011;13046;49.814;9.918;2023-11-19T05:56:54;5.38;;;4.40;;
25049;SDS011;13046;49.814;9.918;2023-11-19T05:59:19;5.80;;;5.20;;
25049;SDS011;13046;49.814;9.918;2023-11-19T06:01:47;5.22;;;4.70;;
25049;SDS011;13046;49.814;9.918;2023-11-19T06:04:13;2.72;;;2.47;;
25049;SDS011;13046;49.814;9.918;2023-11-19T06:06:39;2.30;;;2.13;;
25049;SDS011;13046;49.814;9.918;2023-11-19T06:09:05;4.03;;;2.60;;
25049;SDS011;13046;49.814;9.918;2023-11-19T06:11:32;2.40;;;2.22;;
25049;SDS011;13046;49.814;9.918;2023-11-19T06:13:59;2.60;;;2.40;;
25049;SDS011;13046;49.814;9.918;2023-11-19T06:16:25;2.30;;;2.00;;
25049;SDS011;13046;49.814;9.918;2023-11-19T06:18:52;2.00;;;1.80;;
25049;SDS011;13046;49.814;9.918;2023-11-19T06:21:18;3.90;;;1.77;;
25049;SDS011;13046;49.814;9.918;2023-11-19T06:23:44;4.68;;;2.97;;
25049;SDS011;13046;49.814;9.918;2023-11-19T06:26:10;1.90;;;1.80;;
25049;SDS011;13046;49.814;9.918;2023-11-19T06:28:35;2.72;;;2.53;;
25049;SDS011;13046;49.814;9.918;2023-11-19T06:31:02;2.95;;;2.67;;
25049;SDS011;13046;49.814;9.918;2023-11-19T06:33:28;2.40;;;2.20;;
25049;SDS011;13046;49.814;9.918;2023-11-19T06:35:54;2.47;;;2.33;;
25049;SDS011;13046;49.814;9.918;2023-11-19T06:38:20;2.13;;;1.90;;
25049;SDS011;13046;49.814;9.918;2023-11-19T06:40:45;2.83;;;2.55;;
25049;SDS011;13046;49.814;9.918;2023-11-19T06:43:11;1.88;;;1.77;;
25049;SDS011;13046;49.814;9.918;2023-11-19T06:45:37;2.75;;;2.45;;
25049;SDS011;13046;49.814;9.918;2023-11-19T06:48:05;2.25;;;2.10;;
25049;SDS011;13046;49.814;9.918;2023-11-19T06:50:31;4.85;;;2.53;;
25049;SDS011;13046;49.814;9.918;2023-11-19T06:52:57;2.80;;;2.60;;
25049;SDS011;13046;49.814;9.918;2023-11-19T06:55:23;3.80;;;3.40;;
25049;SDS011;13046;49.814;9.918;2023-11-19T06:57:49;3.80;;;3.20;;
25049;SDS011;13046;49.814;9.918;2023-11-19T07:00:14;3.15;;;2.85;;
25049;SDS011;13046;49.814;9.918;2023-11-19T07:02:40;3.88;;;3.05;;
25049;SDS011;13046;49.814;9.918;2023-11-19T07:05:06;3.28;;;2.97;;
25049;SDS011;13046;49.814;9.918;2023-11-19T07:07:33;3.33;;;3.10;;
25049;SDS011;13046;49.814;9.918;2023-11-19T07:09:59;5.88;;;5.38;;
25049;SDS011;13046;49.814;9.918;2023-11-19T07:12:24;6.45;;;5.82;;
25049;SDS011;13046;49.814;9.918;2023-11-19T07:14:52;7.30;;;5.63;;
25049;SDS011;13046;49.814;9.918;2023-11-19T07:17:18;6.10;;;5.50;;
25049;SDS011;13046;49.814;9.918;2023-11-19T07:19:45;4.93;;;3.70;;
25049;SDS011;13046;49.814;9.918;2023-11-19T07:22:11;9.32;;;8.40;;
25049;SDS011;13046;49.814;9.918;2023-11-19T07:24:39;6.03;;;4.30;;
25049;SDS011;13046;49.814;9.918;2023-11-19T07:27:05;3.70;;;3.40;;
25049;SDS011;13046;49.814;9.918;2023-11-19T07:29:31;4.15;;;3.75;;
25049;SDS011;13046;49.814;9.918;2023-11-19T07:31:57;3.55;;;3.25;;
25049;SDS011;13046;49.814;9.918;2023-11-19T07:34:23;5.38;;;3.83;;
25049;SDS011;13046;49.814;9.918;2023-11-19T07:36:49;3.67;;;3.35;;
25049;SDS011;13046;49.814;9.918;2023-11-19T07:39:15;3.92;;;3.40;;
25049;SDS011;13046;49.814;9.918;2023-11-19T07:41:41;4.00;;;3.60;;
25049;SDS011;13046;49.814;9.918;2023-11-19T07:44:09;4.05;;;3.65;;
25049;SDS011;13046;49.814;9.918;2023-11-19T07:46:34;4.40;;;3.75;;
25049;SDS011;13046;49.814;9.918;2023-11-19T07:49:00;4.30;;;4.00;;
25049;SDS011;13046;49.814;9.918;2023-11-19T07:51:27;4.10;;;3.72;;
25049;SDS011;13046;49.814;9.918;2023-11-19T07:53:53;3.70;;;3.40;;
25049;SDS011;13046;49.814;9.918;2023-11-19T07:56:19;29.02;;;25.92;;
25049;SDS011;13046;49.814;9.918;2023-11-19T07:58:44;10.82;;;9.73;;
25049;SDS011;13046;49.814;9.918;2023-11-19T08:01:10;9.00;;;8.10;;
25049;SDS011;13046;49.814;9.918;2023-11-19T08:03:35;7.50;;;6.43;;
25049;SDS011;13046;49.814;9.918;2023-11-19T08:06:01;4.60;;;4.20;;
25049;SDS011;13046;49.814;9.918;2023-11-19T08:08:28;10.98;;;8.07;;
25049;SDS011;13046;49.814;9.918;2023-11-19T08:10:55;6.95;;;6.35;;
25049;SDS011;13046;49.814;9.918;2023-11-19T08:13:22;3.75;;;3.45;;
25049;SDS011;13046;49.814;9.918;2023-11-19T08:15:50;4.65;;;4.25;;
25049;SDS011;13046;49.814;9.918;2023-11-19T08:18:16;6.20;;;5.60;;
25049;SDS011;13046;49.814;9.918;2023-11-19T08:20:43;5.78;;;5.28;;
25049;SDS011;13046;49.814;9.918;2023-11-19T08:23:10;6.75;;;6.15;;
25049;SDS011;13046;49.814;9.918;2023-11-19T08:25:35;5.32;;;4.65;;
25049;SDS011;13046;49.814;9.918;2023-11-19T08:28:01;2.78;;;2.58;;
25049;SDS011;13046;49.814;9.918;2023-11-19T08:30:28;2.85;;;2.65;;
25049;SDS011;13046;49.814;9.918;2023-11-19T08:32:55;5.47;;;3.85;;
25049;SDS011;13046;49.814;9.918;2023-11-19T08:35:21;8.35;;;7.55;;
25049;SDS011;13046;49.814;9.918;2023-11-19T08:37:47;11.30;;;10.10;;
25049;SDS011;13046;49.814;9.918;2023-11-19T08:40:12;5.03;;;4.53;;
25049;SDS011;13046;49.814;9.918;2023-11-19T08:42:39;4.78;;;3.70;;
25049;SDS011;13046;49.814;9.918;2023-11-19T08:45:06;4.60;;;3.60;;
25049;SDS011;13046;49.814;9.918;2023-11-19T08:47:35;11.95;;;10.70;;
25049;SDS011;13046;49.814;9.918;2023-11-19T08:50:01;8.38;;;6.65;;
25049;SDS011;13046;49.814;9.918;2023-11-19T08:52:29;6.57;;;5.30;;
25049;SDS011;13046;49.814;9.918;2023-11-19T08:54:55;4.00;;;3.17;;
25049;SDS011;13046;49.814;9.918;2023-11-19T08:57:21;4.85;;;4.18;;
25049;SDS011;13046;49.814;9.918;2023-11-19T08:59:46;4.75;;;3.75;;
25049;SDS011;13046;49.814;9.918;2023-11-19T09:02:12;5.00;;;4.40;;
25049;SDS011;13046;49.814;9.918;2023-11-19T09:04:38;4.50;;;4.10;;
25049;SDS011;13046;49.814;9.918;2023-11-19T09:07:04;5.97;;;4.25;;
25049;SDS011;13046;49.814;9.918;2023-11-19T09:09:29;9.45;;;5.80;;
25049;SDS011;13046;49.814;9.918;2023-11-19T09:11:56;4.50;;;4.10;;
25049;SDS011;13046;49.814;9.918;2023-11-19T09:14:21;4.07;;;3.67;;
25049;SDS011;13046;49.814;9.918;2023-11-19T09:16:51;6.53;;;4.80;;
25049;SDS011;13046;49.814;9.918;2023-11-19T09:19:17;4.28;;;2.80;;
25049;SDS011;13046;49.814;9.918;2023-11-19T09:21:43;3.28;;;2.88;;
25049;SDS011;13046;49.814;9.918;2023-11-19T09:24:09;7.38;;;4.15;;
25049;SDS011;13046;49.814;9.918;2023-11-19T09:26:35;3.55;;;2.70;;
25049;SDS011;13046;49.814;9.918;2023-11-19T09:29:04;3.55;;;2.88;;
25049;SDS011;13046;49.814;9.918;2023-11-19T09:31:30;4.15;;;2.35;;
25049;SDS011;13046;49.814;9.918;2023-11-19T09:33:56;4.45;;;2.53;;
25049;SDS011;13046;49.814;9.918;2023-11-19T09:36:22;6.30;;;3.45;;
25049;SDS011;13046;49.814;9.918;2023-11-19T09:38:47;5.32;;;2.13;;
25049;SDS011;13046;49.814;9.918;2023-11-19T09:41:13;7.93;;;5.75;;
25049;SDS011;13046;49.814;9.918;2023-11-19T09:43:40;4.63;;;2.65;;
25049;SDS011;13046;49.814;9.918;2023-11-19T09:46:06;4.97;;;4.47;;
25049;SDS011;13046;49.814;9.918;2023-11-19T09:48:37;7.90;;;4.72;;
25049;SDS011;13046;49.814;9.918;2023-11-19T09:51:09;4.88;;;3.67;;
25049;SDS011;13046;49.814;9.918;2023-11-19T09:53:36;5.75;;;3.85;;
25049;SDS011;13046;49.814;9.918;2023-11-19T09:56:03;4.18;;;2.72;;
25049;SDS011;13046;49.814;9.918;2023-11-19T09:58:30;3.10;;;2.20;;
25049;SDS011;13046;49.814;9.918;2023-11-19T10:00:56;7.70;;;2.28;;
25049;SDS011;13046;49.814;9.918;2023-11-19T10:03:24;4.70;;;2.25;;
25049;SDS011;13046;49.814;9.918;2023-11-19T10:05:54;10.30;;;4.75;;
25049;SDS011;13046;49.814;9.918;2023-11-19T10:08:21;6.60;;;2.70;;
25049;SDS011;13046;49.814;9.918;2023-11-19T10:10:47;7.35;;;5.10;;
25049;SDS011;13046;49.814;9.918;2023-11-19T10:13:13;6.30;;;2.50;;
25049;SDS011;13046;49.814;9.918;2023-11-19T10:15:39;7.10;;;3.70;;
25049;SDS011;13046;49.814;9.918;2023-11-19T10:18:06;4.85;;;2.90;;
25049;SDS011;13046;49.814;9.918;2023-11-19T10:20:35;2.55;;;2.35;;
25049;SDS011;13046;49.814;9.918;2023-11-19T10:23:02;3.92;;;2.50;;
25049;SDS011;13046;49.814;9.918;2023-11-19T10:25:28;6.10;;;2.50;;
25049;SDS011;13046;49.814;9.918;2023-11-19T10:27:55;3.30;;;2.00;;
25049;SDS011;13046;49.814;9.918;2023-11-19T10:30:21;2.80;;;2.33;;
25049;SDS011;13046;49.814;9.918;2023-11-19T10:33:05;2.38;;;2.25;;
25049;SDS011;13046;49.814;9.918;2023-11-19T10:35:35;7.25;;;3.10;;
25049;SDS011;13046;49.814;9.918;2023-11-19T10:38:15;6.35;;;2.75;;
25049;SDS011;13046;49.814;9.918;2023-11-19T10:40:41;3.78;;;2.22;;
25049;SDS011;13046;49.814;9.918;2023-11-19T10:43:07;6.47;;;2.20;;
25049;SDS011;13046;49.814;9.918;2023-11-19T10:45:34;3.30;;;2.03;;
25049;SDS011;13046;49.814;9.918;2023-11-19T10:48:00;2.88;;;2.00;;
25049;SDS011;13046;49.814;9.918;2023-11-19T10:50:29;3.03;;;1.67;;
25049;SDS011;13046;49.814;9.918;2023-11-19T10:52:56;3.85;;;1.92;;
25049;SDS011;13046;49.814;9.918;2023-11-19T10:55:37;2.97;;;1.60;;
25049;SDS011;13046;49.814;9.918;2023-11-19T10:58:09;5.93;;;2.25;;
25049;SDS011;13046;49.814;9.918;2023-11-19T11:03:10;4.30;;;2.45;;
25049;SDS011;13046;49.814;9.918;2023-11-19T11:05:40;4.53;;;2.00;;
25049;SDS011;13046;49.814;9.918;2023-11-19T11:08:06;3.50;;;2.10;;
25049;SDS011;13046;49.814;9.918;2023-11-19T11:10:35;4.47;;;2.13;;
25049;SDS011;13046;49.814;9.918;2023-11-19T11:15:32;5.60;;;2.63;;
25049;SDS011;13046;49.814;9.918;2023-11-19T11:18:00;3.72;;;2.47;;
25049;SDS011;13046;49.814;9.918;2023-11-19T11:20:30;3.53;;;2.60;;
25049;SDS011;13046;49.814;9.918;2023-11-19T11:28:22;3.70;;;2.30;;
25049;SDS011;13046;49.814;9.918;2023-11-19T11:31:00;7.18;;;2.65;;
25049;SDS011;13046;49.814;9.918;2023-11-19T11:36:41;3.00;;;1.77;;
25049;SDS011;13046;49.814;9.918;2023-11-19T11:39:16;2.78;;;2.47;;
25049;SDS011;13046;49.814;9.918;2023-11-19T11:41:44;3.22;;;1.65;;
25049;SDS011;13046;49.814;9.918;2023-11-19T11:44:10;2.85;;;1.80;;
25049;SDS011;13046;49.814;9.918;2023-11-19T11:49:02;4.47;;;1.80;;
25049;SDS011;13046;49.814;9.918;2023-11-19T11:54:10;2.80;;;1.77;;
25049;SDS011;13046;49.814;9.918;2023-11-19T11:56:37;5.18;;;1.45;;
25049;SDS011;13046;49.814;9.918;2023-11-19T11:59:03;3.47;;;1.80;;
25049;SDS011;13046;49.814;9.918;2023-11-19T12:01:33;3.78;;;1.80;;
25049;SDS011;13046;49.814;9.918;2023-11-19T12:03:58;2.80;;;1.75;;
25049;SDS011;13046;49.814;9.918;2023-11-19T12:06:26;3.40;;;1.67;;
25049;SDS011;13046;49.814;9.918;2023-11-19T12:08:52;2.97;;;1.60;;
25049;SDS011;13046;49.814;9.918;2023-11-19T12:11:24;6.13;;;2.30;;
25049;SDS011;13046;49.814;9.918;2023-11-19T12:13:55;9.73;;;4.60;;
25049;SDS011;13046;49.814;9.918;2023-11-19T12:16:23;5.28;;;4.05;;
25049;SDS011;13046;49.814;9.918;2023-11-19T12:18:49;2.58;;;2.25;;
25049;SDS011;13046;49.814;9.918;2023-11-19T12:21:27;3.85;;;2.22;;
25049;SDS011;13046;49.814;9.918;2023-11-19T12:23:58;2.37;;;2.10;;
25049;SDS011;13046;49.814;9.918;2023-11-19T12:26:33;2.75;;;1.90;;
25049;SDS011;13046;49.814;9.918;2023-11-19T12:29:00;4.35;;;2.33;;
25049;SDS011;13046;49.814;9.918;2023-11-19T12:31:26;3.95;;;2.28;;
25049;SDS011;13046;49.814;9.918;2023-11-19T12:33:51;4.88;;;2.75;;
25049;SDS011;13046;49.814;9.918;2023-11-19T12:36:18;5.65;;;4.88;;
25049;SDS011;13046;49.814;9.918;2023-11-19T12:38:44;3.75;;;2.28;;
25049;SDS011;13046;49.814;9.918;2023-11-19T12:41:11;3.50;;;2.38;;
25049;SDS011;13046;49.814;9.918;2023-11-19T12:43:38;4.10;;;1.92;;
25049;SDS011;13046;49.814;9.918;2023-11-19T12:46:22;5.75;;;3.05;;
25049;SDS011;13046;49.814;9.918;2023-11-19T12:48:49;5.15;;;1.77;;
25049;SDS011;13046;49.814;9.918;2023-11-19T12:51:15;3.22;;;2.10;;
25049;SDS011;13046;49.814;9.918;2023-11-19T12:53:48;2.83;;;2.30;;
25049;SDS011;13046;49.814;9.918;2023-11-19T12:56:23;4.32;;;2.17;;
25049;SDS011;13046;49.814;9.918;2023-11-19T12:58:50;4.00;;;1.70;;
25049;SDS011;13046;49.814;9.918;2023-11-19T13:01:16;2.63;;;1.98;;
25049;SDS011;13046;49.814;9.918;2023-11-19T13:03:43;2.83;;;2.30;;
25049;SDS011;13046;49.814;9.918;2023-11-19T13:06:10;4.82;;;1.85;;
25049;SDS011;13046;49.814;9.918;2023-11-19T13:08:41;5.65;;;3.92;;
25049;SDS011;13046;49.814;9.918;2023-11-19T13:11:11;3.90;;;2.17;;
25049;SDS011;13046;49.814;9.918;2023-11-19T13:13:56;4.78;;;2.28;;
25049;SDS011;13046;49.814;9.918;2023-11-19T13:16:27;5.13;;;1.70;;
25049;SDS011;13046;49.814;9.918;2023-11-19T13:18:53;4.05;;;1.67;;
25049;SDS011;13046;49.814;9.918;2023-11-19T13:21:20;2.45;;;2.25;;
25049;SDS011;13046;49.814;9.918;2023-11-19T13:23:45;4.60;;;2.10;;
25049;SDS011;13046;49.814;9.918;2023-11-19T13:26:11;6.13;;;2.58;;
25049;SDS011;13046;49.814;9.918;2023-11-19T13:28:38;6.20;;;2.25;;
25049;SDS011;13046;49.814;9.918;2023-11-19T13:31:04;7.80;;;1.75;;
25049;SDS011;13046;49.814;9.918;2023-11-19T13:33:30;6.53;;;2.00;;
25049;SDS011;13046;49.814;9.918;2023-11-19T13:35:56;3.25;;;2.38;;
25049;SDS011;13046;49.814;9.918;2023-11-19T13:38:22;3.17;;;1.30;;
25049;SDS011;13046;49.814;9.918;2023-11-19T13:40:51;10.05;;;3.17;;
25049;SDS011;13046;49.814;9.918;2023-11-19T13:43:17;3.88;;;1.40;;
25049;SDS011;13046;49.814;9.918;2023-11-19T13:45:42;2.78;;;1.65;;
25049;SDS011;13046;49.814;9.918;2023-11-19T13:48:08;6.95;;;1.65;;
25049;SDS011;13046;49.814;9.918;2023-11-19T13:50:34;4.07;;;1.92;;
25049;SDS011;13046;49.814;9.918;2023-11-19T13:53:00;3.25;;;1.98;;
25049;SDS011;13046;49.814;9.918;2023-11-19T13:55:26;3.90;;;1.25;;
25049;SDS011;13046;49.814;9.918;2023-11-19T13:57:52;4.80;;;3.00;;
25049;SDS011;13046;49.814;9.918;2023-11-19T14:00:17;41.85;;;24.63;;
25049;SDS011;13046;49.814;9.918;2023-11-19T14:02:44;30.58;;;19.75;;
25049;SDS011;13046;49.814;9.918;2023-11-19T14:05:11;8.75;;;4.13;;
25049;SDS011;13046;49.814;9.918;2023-11-19T14:07:38;3.47;;;2.00;;
25049;SDS011;13046;49.814;9.918;2023-11-19T14:10:04;5.97;;;1.67;;
25049;SDS011;13046;49.814;9.918;2023-11-19T14:12:31;4.47;;;1.60;;
25049;SDS011;13046;49.814;9.918;2023-11-19T14:14:58;2.45;;;1.70;;
25049;SDS011;13046;49.814;9.918;2023-11-19T14:17:25;5.97;;;3.10;;
25049;SDS011;13046;49.814;9.918;2023-11-19T14:19:50;5.70;;;2.55;;
25049;SDS011;13046;49.814;9.918;2023-11-19T14:22:16;4.72;;;1.65;;
25049;SDS011;13046;49.814;9.918;2023-11-19T14:24:42;8.23;;;2.13;;
25049;SDS011;13046;49.814;9.918;2023-11-19T14:27:08;3.97;;;1.90;;
25049;SDS011;13046;49.814;9.918;2023-11-19T14:29:37;6.05;;;1.70;;
25049;SDS011;13046;49.814;9.918;2023-11-19T14:32:03;5.03;;;1.88;;
25049;SDS011;13046;49.814;9.918;2023-11-19T14:34:32;6.90;;;1.75;;
25049;SDS011;13046;49.814;9.918;2023-11-19T14:36:58;9.00;;;2.20;;
25049;SDS011;13046;49.814;9.918;2023-11-19T14:39:25;3.05;;;1.20;;
25049;SDS011;13046;49.814;9.918;2023-11-19T14:41:51;32.00;;;19.85;;
25049;SDS011;13046;49.814;9.918;2023-11-19T14:44:18;5.40;;;3.33;;
25049;SDS011;13046;49.814;9.918;2023-11-19T14:46:45;6.45;;;3.72;;
25049;SDS011;13046;49.814;9.918;2023-11-19T14:49:12;10.25;;;5.80;;
25049;SDS011;13046;49.814;9.918;2023-11-19T14:51:39;10.60;;;3.88;;
25049;SDS011;13046;49.814;9.918;2023-11-19T14:54:05;7.75;;;2.38;;
25049;SDS011;13046;49.814;9.918;2023-11-19T14:56:30;7.00;;;2.67;;
25049;SDS011;13046;49.814;9.918;2023-11-19T14:58:56;7.93;;;2.92;;
25049;SDS011;13046;49.814;9.918;2023-11-19T15:01:22;9.20;;;2.05;;